Time;durP1;ratioP1;P1;durP2;ratioP2;P2;SDS_P1;SDS_P2;PMS_P1;PMS_P2;Temp;Humidity;BMP_temperature;BMP_pressure;BME280_temperature;BME280_humidity;BME280_pressure;Samples;Min_cycle;Max_cycle;Signal;HPM_P1;HPM_P2
2022/04/17 00:00:50;;;;;;;7.32;6.28;;;;;;;4.40;59.42;102554.09;5033775;28;20566;-24
2022/04/17 00:03:15;;;;;;;6.50;5.78;;;;;;;4.38;59.42;102560.06;5042718;28;20075;-20
2022/04/17 00:05:41;;;;;;;6.88;6.10;;;;;;;4.33;59.64;102557.22;5041475;28;20030;-24
2022/04/17 00:08:06;;;;;;;7.10;6.28;;;;;;;4.30;59.23;102551.88;5039818;28;20112;-24
2022/04/17 00:10:32;;;;;;;9.68;6.47;;;;;;;4.25;59.65;102554.28;5033376;28;20033;-24
2022/04/17 00:12:58;;;;;;;7.25;6.45;;;;;;;4.21;59.93;102548.00;5035415;28;20064;-24
2022/04/17 00:15:23;;;;;;;6.40;5.72;;;;;;;4.16;59.55;102556.44;5036853;28;20536;-24
2022/04/17 00:17:49;;;;;;;6.07;5.47;;;;;;;4.13;59.26;102559.78;5036285;28;20021;-24
2022/04/17 00:20:16;;;;;;;6.50;5.90;;;;;;;4.11;59.54;102553.63;5032370;28;20562;-24
2022/04/17 00:22:42;;;;;;;6.90;6.22;;;;;;;4.05;60.01;102550.69;5031666;28;20025;-24
2022/04/17 00:25:08;;;;;;;8.43;6.20;;;;;;;4.03;59.62;102547.13;5029272;28;20056;-24
2022/04/17 00:27:35;;;;;;;7.53;6.30;;;;;;;3.96;59.49;102535.47;5029922;28;20025;-24
2022/04/17 00:30:01;;;;;;;6.88;5.93;;;;;;;3.93;59.97;102541.44;5030964;28;20037;-21
2022/04/17 00:32:26;;;;;;;7.43;6.60;;;;;;;3.90;59.67;102536.06;5027660;28;20025;-21
2022/04/17 00:34:52;;;;;;;8.07;6.40;;;;;;;3.87;59.84;102538.53;5027889;28;20025;-24
2022/04/17 00:37:17;;;;;;;7.18;6.50;;;;;;;3.84;60.04;102541.00;5011664;28;20040;-24
2022/04/17 00:39:43;;;;;;;6.88;6.18;;;;;;;3.79;59.77;102532.03;5031364;28;20729;-24
2022/04/17 00:42:09;;;;;;;6.30;5.70;;;;;;;3.75;59.86;102532.72;5012836;28;20057;-24
2022/04/17 00:44:36;;;;;;;7.40;6.63;;;;;;;3.72;60.07;102536.06;5026178;28;20087;-24
2022/04/17 00:47:03;;;;;;;7.75;6.68;;;;;;;3.68;59.80;102529.81;5027846;28;20067;-24
2022/04/17 00:49:28;;;;;;;6.90;6.25;;;;;;;3.64;59.76;102533.09;5030890;28;20041;-24
2022/04/17 00:51:54;;;;;;;6.80;6.15;;;;;;;3.62;60.21;102523.38;5028777;28;20405;-24
2022/04/17 00:54:20;;;;;;;6.82;6.13;;;;;;;3.57;59.91;102512.75;5028563;28;20087;-24
2022/04/17 00:56:49;;;;;;;7.88;7.07;;;;;;;3.53;60.14;102513.41;5028634;28;20033;-24
2022/04/17 00:59:15;;;;;;;6.85;6.22;;;;;;;3.47;60.06;102511.38;5029817;28;20116;-24
2022/04/17 01:01:41;;;;;;;7.25;6.13;;;;;;;3.46;60.05;102518.31;5028147;28;20021;-24
2022/04/17 01:04:07;;;;;;;7.05;6.10;;;;;;;3.40;60.13;102518.00;5029031;28;20450;-24
2022/04/17 01:06:33;;;;;;;8.43;6.80;;;;;;;3.39;60.09;102516.22;5029029;28;20048;-22
2022/04/17 01:08:59;;;;;;;6.47;5.75;;;;;;;3.35;60.22;102519.47;5029604;28;20487;-24
2022/04/17 01:11:24;;;;;;;6.20;5.60;;;;;;;3.32;60.41;102527.16;5041554;28;20082;-24
2022/04/17 01:13:52;;;;;;;7.78;6.22;;;;;;;3.29;60.48;102513.94;5039869;28;20021;-24
2022/04/17 01:16:17;;;;;;;6.85;6.13;;;;;;;3.25;60.18;102522.44;5031491;28;20220;-23
2022/04/17 01:18:55;;;;;;;8.20;6.57;;;;;;;3.21;60.09;102527.47;5031329;28;20456;-24
2022/04/17 01:21:21;;;;;;;6.88;6.18;;;;;;;3.17;60.64;102524.66;5029047;28;20472;-23
2022/04/17 01:29:15;;;;;;;8.10;5.88;;;;;;;3.04;60.19;102529.22;5028074;28;20119;-23
2022/04/17 01:31:41;;;;;;;6.95;6.13;;;;;;;3.02;60.54;102520.44;5028068;28;20034;-24
2022/04/17 01:34:06;;;;;;;7.20;6.55;;;;;;;2.99;60.31;102527.19;5026688;28;20025;-24
2022/04/17 01:36:31;;;;;;;8.30;6.15;;;;;;;2.95;60.40;102526.16;5028303;28;20021;-24
2022/04/17 01:38:57;;;;;;;6.75;6.13;;;;;;;2.90;60.67;102533.72;5026279;28;20044;-24
2022/04/17 01:41:22;;;;;;;7.20;6.13;;;;;;;2.88;60.47;102537.06;5028142;28;20104;-24
2022/04/17 01:43:48;;;;;;;9.77;7.20;;;;;;;2.84;60.45;102527.28;5030817;28;20025;-24
2022/04/17 01:46:13;;;;;;;8.00;6.88;;;;;;;2.82;60.30;102532.41;5030936;28;20404;-24
2022/04/17 01:48:39;;;;;;;7.82;6.28;;;;;;;2.78;60.48;102515.75;5028609;28;20068;-24
2022/04/17 01:51:04;;;;;;;7.40;6.70;;;;;;;2.72;60.45;102499.78;5032939;28;20021;-24
2022/04/17 01:53:29;;;;;;;8.40;6.60;;;;;;;2.71;60.72;102510.09;5029734;28;20021;-23
2022/04/17 01:55:55;;;;;;;8.02;6.45;;;;;;;2.66;60.63;102505.56;5025722;28;20059;-24
2022/04/17 01:58:20;;;;;;;7.82;6.72;;;;;;;2.62;60.74;102514.03;5025709;28;20116;-24
2022/04/17 02:00:46;;;;;;;7.70;7.00;;;;;;;2.62;60.54;102507.91;5029700;28;20042;-22
2022/04/17 02:03:11;;;;;;;11.20;7.70;;;;;;;2.58;60.61;102506.84;5027478;28;20029;-23
2022/04/17 02:05:36;;;;;;;7.57;6.88;;;;;;;2.55;60.63;102506.69;5028010;28;20475;-24
2022/04/17 02:08:02;;;;;;;7.78;6.90;;;;;;;2.52;60.64;102516.94;5032780;28;20494;-23
2022/04/17 02:10:27;;;;;;;7.85;7.05;;;;;;;2.47;60.57;102513.19;5044324;28;20036;-24
2022/04/17 02:12:53;;;;;;;8.40;7.60;;;;;;;2.43;60.83;102510.41;5039565;28;20083;-23
2022/04/17 02:15:19;;;;;;;7.78;6.97;;;;;;;2.38;60.70;102506.69;5041272;28;20304;-23
2022/04/17 02:17:44;;;;;;;7.85;6.95;;;;;;;2.36;60.84;102505.69;5040316;28;20029;-24
2022/04/17 02:20:11;;;;;;;8.68;7.75;;;;;;;2.33;60.94;102515.06;5038143;28;20384;-23
2022/04/17 02:22:37;;;;;;;8.73;7.93;;;;;;;2.29;60.83;102519.19;5028161;28;20033;-23
2022/04/17 02:25:02;;;;;;;9.98;8.25;;;;;;;2.29;60.77;102521.78;5030071;28;20083;-24
2022/04/17 02:27:27;;;;;;;8.77;7.88;;;;;;;2.24;60.77;102512.84;5024067;28;20034;-24
2022/04/17 02:29:53;;;;;;;9.15;8.25;;;;;;;2.21;61.10;102516.19;5029389;28;20039;-23
2022/04/17 02:32:18;;;;;;;10.48;8.88;;;;;;;2.17;60.85;102504.69;5028927;28;20033;-24
2022/04/17 02:34:44;;;;;;;10.18;8.60;;;;;;;2.11;60.60;102493.94;5031461;28;20017;-24
2022/04/17 02:37:09;;;;;;;9.80;8.38;;;;;;;2.12;60.86;102507.84;5030650;28;20022;-23
2022/04/17 02:39:35;;;;;;;9.93;8.82;;;;;;;2.07;60.65;102497.19;5028382;28;20522;-24
2022/04/17 02:42:00;;;;;;;10.35;8.90;;;;;;;2.03;60.98;102503.00;5031414;28;20079;-24
2022/04/17 02:44:26;;;;;;;9.68;8.68;;;;;;;1.99;61.15;102498.44;5028556;28;20430;-21
2022/04/17 02:49:35;;;;;;;10.82;9.60;;;;;;;1.94;61.07;102499.91;5024702;28;20072;-24
2022/04/17 02:52:01;;;;;;;11.88;10.10;;;;;;;1.89;61.07;102497.94;5029967;28;20021;-24
2022/04/17 02:54:26;;;;;;;11.20;9.98;;;;;;;1.86;61.30;102502.97;5028298;28;20029;-22
2022/04/17 02:56:51;;;;;;;14.48;10.73;;;;;;;1.82;61.43;102501.00;5027016;28;20029;-24
2022/04/17 02:59:17;;;;;;;12.45;10.80;;;;;;;1.81;61.34;102507.03;5031441;28;20033;-24
2022/04/17 03:07:10;;;;;;;13.20;11.27;;;;;;;1.70;61.27;102505.53;5028638;28;20050;-23
2022/04/17 03:09:36;;;;;;;11.90;10.57;;;;;;;1.66;61.56;102487.13;5032129;28;20036;-24
2022/04/17 03:12:01;;;;;;;12.65;11.35;;;;;;;1.65;61.44;102487.03;5029073;28;20113;-24
2022/04/17 03:14:27;;;;;;;12.75;11.45;;;;;;;1.62;61.34;102481.66;5028661;28;20025;-23
2022/04/17 03:16:52;;;;;;;15.00;11.48;;;;;;;1.58;61.58;102485.81;5027890;28;20041;-24
2022/04/17 03:19:18;;;;;;;12.82;11.43;;;;;;;1.57;61.61;102490.91;5027707;28;20060;-24
2022/04/17 03:21:44;;;;;;;14.30;11.57;;;;;;;1.53;61.53;102492.41;5038743;28;20527;-24
2022/04/17 03:24:10;;;;;;;13.45;11.55;;;;;;;1.50;61.97;102487.94;5045095;28;20021;-24
2022/04/17 03:26:36;;;;;;;13.20;11.82;;;;;;;1.51;61.57;102496.66;5042599;28;20607;-24
2022/04/17 03:29:02;;;;;;;12.52;11.27;;;;;;;1.46;61.35;102479.91;5039742;28;20059;-24
2022/04/17 03:31:27;;;;;;;13.93;11.63;;;;;;;1.43;61.78;102484.91;5043983;28;20067;-24
2022/04/17 03:33:54;;;;;;;14.05;12.55;;;;;;;1.39;61.64;102489.94;5042362;28;20039;-23
2022/04/17 03:36:19;;;;;;;13.55;12.00;;;;;;;1.37;61.68;102490.66;5039587;28;20030;-24
2022/04/17 03:38:44;;;;;;;14.98;11.88;;;;;;;1.35;61.58;102482.78;5042681;28;20029;-24
2022/04/17 03:41:10;;;;;;;13.57;11.77;;;;;;;1.32;61.53;102479.97;5037668;28;20038;-23
2022/04/17 03:43:35;;;;;;;13.30;11.75;;;;;;;1.28;61.71;102478.94;5033272;28;20059;-24
2022/04/17 03:46:01;;;;;;;15.77;13.27;;;;;;;1.26;61.75;102477.00;5033718;28;20132;-24
2022/04/17 03:48:26;;;;;;;13.60;12.20;;;;;;;1.22;61.59;102475.03;5032787;28;20025;-21
2022/04/17 03:50:52;;;;;;;14.93;13.40;;;;;;;1.21;61.73;102479.38;5033458;28;20158;-24
2022/04/17 03:53:18;;;;;;;14.00;12.40;;;;;;;1.19;61.71;102480.06;5041716;28;20036;-23
2022/04/17 03:55:43;;;;;;;17.98;12.32;;;;;;;1.15;61.74;102474.72;5047556;28;20017;-24
2022/04/17 03:58:09;;;;;;;15.48;13.05;;;;;;;1.13;61.70;102471.09;5042636;28;20025;-24
2022/04/17 04:00:34;;;;;;;14.32;12.82;;;;;;;1.11;61.80;102461.44;5044230;28;20111;-24
2022/04/17 04:03:01;;;;;;;15.23;12.32;;;;;;;1.09;61.81;102473.44;5043925;28;20080;-24
2022/04/17 04:05:26;;;;;;;13.95;12.55;;;;;;;1.06;61.83;102463.75;5049081;28;20383;-23
2022/04/17 04:07:52;;;;;;;14.73;13.13;;;;;;;1.05;62.11;102471.44;5043892;28;20032;-23
2022/04/17 04:10:17;;;;;;;14.13;12.55;;;;;;;1.03;61.92;102466.16;5044423;28;20090;-24
2022/04/17 04:12:42;;;;;;;16.33;12.85;;;;;;;0.98;62.14;102459.81;5028239;28;20025;-24
2022/04/17 04:15:08;;;;;;;14.77;13.15;;;;;;;0.96;61.61;102456.19;5031135;28;20022;-24
2022/04/17 04:17:34;;;;;;;14.32;12.75;;;;;;;0.95;61.68;102459.63;5033074;28;20032;-24
2022/04/17 04:20:01;;;;;;;14.10;12.20;;;;;;;0.88;62.19;102447.97;5031663;28;20041;-24
2022/04/17 04:22:26;;;;;;;18.20;12.98;;;;;;;0.88;61.83;102456.69;5032194;28;20132;-24
2022/04/17 04:24:52;;;;;;;15.23;13.52;;;;;;;0.85;61.97;102447.78;5032264;28;20531;-24
2022/04/17 04:30:02;;;;;;;13.85;12.45;;;;;;;0.80;61.88;102447.50;5035632;28;20033;-24
2022/04/17 04:32:28;;;;;;;13.73;12.20;;;;;;;0.78;62.35;102443.94;5033571;28;20024;-24
2022/04/17 04:35:00;;;;;;;14.40;12.02;;;;;;;0.75;61.92;102436.84;5032694;28;20021;-24
2022/04/17 04:37:25;;;;;;;13.93;12.52;;;;;;;0.75;61.93;102435.94;5028388;28;20052;-24
2022/04/17 04:39:51;;;;;;;16.40;13.20;;;;;;;0.71;62.42;102433.97;5034432;28;20460;-24
2022/04/17 04:42:17;;;;;;;14.95;12.32;;;;;;;0.69;62.09;102435.56;5043524;28;20044;-24
2022/04/17 04:44:43;;;;;;;13.13;11.80;;;;;;;0.68;62.48;102439.88;5044085;28;20107;-24
2022/04/17 04:47:08;;;;;;;15.07;13.52;;;;;;;0.67;62.32;102445.00;5035394;28;20456;-24
2022/04/17 04:49:34;;;;;;;15.15;13.23;;;;;;;0.64;62.66;102441.38;5045479;28;20539;-25
2022/04/17 04:52:00;;;;;;;17.80;13.48;;;;;;;0.63;62.17;102437.00;5040647;28;20551;-24
2022/04/17 04:54:28;;;;;;;14.57;13.13;;;;;;;0.63;62.66;102437.00;5040407;28;20535;-24
2022/04/17 04:56:54;;;;;;;14.93;12.18;;;;;;;0.60;62.79;102431.63;5032778;28;20113;-24
2022/04/17 04:59:20;;;;;;;15.30;13.70;;;;;;;0.59;62.38;102431.53;5030580;28;20033;-24
2022/04/17 05:01:47;;;;;;;13.90;12.40;;;;;;;0.58;62.60;102437.53;5032047;28;20041;-24
2022/04/17 05:04:13;;;;;;;16.05;13.65;;;;;;;0.57;62.37;102422.75;5026997;28;20081;-24
2022/04/17 05:06:38;;;;;;;17.25;13.43;;;;;;;0.55;62.73;102417.47;5013215;28;20045;-24
2022/04/17 05:09:04;;;;;;;15.73;14.02;;;;;;;0.57;62.11;102412.38;5031249;28;20029;-24
2022/04/17 05:11:29;;;;;;;21.17;14.95;;;;;;;0.55;62.78;102409.69;5034600;28;20035;-24
2022/04/17 05:13:55;;;;;;;13.82;12.43;;;;;;;0.54;62.43;102410.50;5043101;28;20532;-24
2022/04/17 05:16:20;;;;;;;15.90;13.55;;;;;;;0.54;62.80;102414.78;5040900;28;20031;-24
2022/04/17 05:18:48;;;;;;;14.90;13.30;;;;;;;0.53;62.56;102415.59;5034974;28;20398;-24
2022/04/17 05:21:14;;;;;;;17.75;14.02;;;;;;;0.51;62.66;102410.31;5030923;28;20043;-24
2022/04/17 05:23:40;;;;;;;14.60;13.07;;;;;;;0.51;62.50;102415.50;5028657;28;20025;-24
2022/04/17 05:26:05;;;;;;;18.75;14.30;;;;;;;0.52;62.87;102417.28;5031314;28;20124;-24
2022/04/17 05:28:32;;;;;;;17.67;13.68;;;;;;;0.54;63.03;102420.88;5032988;28;20112;-24
2022/04/17 05:30:58;;;;;;;16.15;13.23;;;;;;;0.53;63.15;102420.78;5035187;28;20124;-24
2022/04/17 05:33:24;;;;;;;16.35;14.60;;;;;;;0.54;63.02;102414.78;5038221;28;20025;-24
2022/04/17 05:35:51;;;;;;;16.17;13.52;;;;;;;0.54;63.05;102419.97;5040887;28;20065;-24
2022/04/17 05:38:16;;;;;;;16.08;14.05;;;;;;;0.53;63.62;102424.25;5040610;28;20036;-24
2022/04/17 05:40:44;;;;;;;14.23;12.95;;;;;;;0.55;63.40;102419.16;5038642;28;20395;-23
2022/04/17 05:43:10;;;;;;;16.95;13.65;;;;;;;0.56;63.77;102433.97;5038300;28;20029;-24
2022/04/17 05:45:36;;;;;;;16.25;14.65;;;;;;;0.55;63.40;102433.06;5038726;28;20035;-24
2022/04/17 05:48:03;;;;;;;16.55;13.40;;;;;;;0.59;63.53;102441.91;5039542;28;20489;-24
2022/04/17 05:50:28;;;;;;;15.48;13.85;;;;;;;0.59;64.15;102440.22;5040561;28;20033;-23
2022/04/17 05:52:54;;;;;;;16.25;14.55;;;;;;;0.63;64.12;102454.28;5019134;28;20033;-24
2022/04/17 05:55:20;;;;;;;16.05;14.07;;;;;;;0.63;64.38;102456.88;5038676;28;20032;-24
2022/04/17 05:57:46;;;;;;;15.02;13.18;;;;;;;0.65;64.47;102455.28;5041124;28;20021;-24
2022/04/17 06:00:12;;;;;;;14.57;13.05;;;;;;;0.69;64.24;102462.44;5041612;28;20087;-24
2022/04/17 06:02:38;;;;;;;17.17;14.65;;;;;;;0.71;64.25;102465.16;5041184;28;20108;-24
2022/04/17 06:05:05;;;;;;;16.33;13.38;;;;;;;0.74;64.54;102474.00;5045511;28;20074;-24
2022/04/17 06:07:31;;;;;;;18.25;14.13;;;;;;;0.79;64.71;102474.28;5023277;28;20071;-24
2022/04/17 06:10:03;;;;;;;16.23;14.30;;;;;;;0.83;64.40;102476.25;5030200;28;20029;-24
2022/04/17 06:12:29;;;;;;;16.98;14.07;;;;;;;0.89;64.37;102486.13;5031662;28;20060;-25
2022/04/17 06:14:54;;;;;;;16.80;14.88;;;;;;;0.94;64.53;102478.63;5030876;28;20060;-24
2022/04/17 06:17:20;;;;;;;15.55;13.95;;;;;;;1.00;64.66;102473.81;5033020;28;20107;-24
2022/04/17 06:19:45;;;;;;;16.42;13.98;;;;;;;1.05;64.92;102474.97;5027665;28;21352;-25
2022/04/17 06:22:11;;;;;;;18.52;15.07;;;;;;;1.10;64.85;102476.13;5040264;28;20051;-24
2022/04/17 06:24:36;;;;;;;18.27;13.65;;;;;;;1.16;65.04;102475.59;5038254;28;20033;-25
2022/04/17 06:27:02;;;;;;;15.63;13.63;;;;;;;1.22;65.31;102470.75;5036901;28;20505;-24
2022/04/17 06:29:27;;;;;;;17.30;13.93;;;;;;;1.31;65.75;102475.59;5037511;28;20236;-25
2022/04/17 06:31:53;;;;;;;16.25;14.48;;;;;;;1.39;65.91;102468.22;5031363;28;20029;-24
2022/04/17 06:34:19;;;;;;;19.75;16.55;;;;;;;1.46;66.31;102465.19;5028182;28;20055;-24
2022/04/17 06:36:44;;;;;;;16.27;14.52;;;;;;;1.56;66.03;102470.91;5027892;28;20052;-25
2022/04/17 06:39:10;;;;;;;17.15;14.65;;;;;;;1.64;66.43;102449.72;5035422;28;20499;-25
2022/04/17 06:41:35;;;;;;;16.45;14.07;;;;;;;1.73;66.34;102453.66;5030361;28;20044;-25
2022/04/17 06:44:01;;;;;;;18.05;14.88;;;;;;;1.82;66.09;102453.25;5042299;28;20030;-24
2022/04/17 06:46:26;;;;;;;18.77;15.35;;;;;;;1.91;66.13;102451.19;5037152;28;20029;-23
2022/04/17 06:48:52;;;;;;;18.73;14.00;;;;;;;2.01;66.89;102450.00;5033912;28;20020;-25
2022/04/17 06:51:22;;;;;;;18.27;15.20;;;;;;;2.11;66.50;102452.28;5037771;28;20475;-23
2022/04/17 06:53:48;;;;;;;19.00;14.85;;;;;;;2.21;66.69;102442.38;5040979;28;20105;-23
2022/04/17 06:56:16;;;;;;;17.17;14.13;;;;;;;2.32;66.26;102441.22;5039522;28;20068;-23
2022/04/17 06:58:42;;;;;;;16.80;14.57;;;;;;;2.44;66.41;102443.59;5036021;28;20024;-26
2022/04/17 07:01:07;;;;;;;16.90;13.57;;;;;;;2.55;65.90;102445.06;5038505;28;20021;-24
2022/04/17 07:03:33;;;;;;;14.82;12.95;;;;;;;2.67;65.96;102451.75;5037226;28;20035;-25
2022/04/17 07:05:59;;;;;;;13.93;11.43;;;;;;;2.77;65.36;102456.59;5033371;28;20029;-25
2022/04/17 07:08:25;;;;;;;13.23;11.43;;;;;;;2.90;64.58;102452.03;5048607;28;20071;-25
2022/04/17 07:10:50;;;;;;;12.85;11.25;;;;;;;3.00;64.59;102459.50;5041844;28;20029;-24
2022/04/17 07:13:18;;;;;;;15.10;11.23;;;;;;;3.09;64.45;102456.47;5040289;28;20025;-24
2022/04/17 07:15:43;;;;;;;12.57;11.38;;;;;;;3.18;64.09;102459.56;5046240;28;20025;-25
2022/04/17 07:18:08;;;;;;;13.10;10.57;;;;;;;3.30;64.16;102458.38;5032008;28;20403;-25
2022/04/17 07:20:35;;;;;;;13.20;10.00;;;;;;;3.44;64.39;102453.84;5030054;28;20033;-25
2022/04/17 07:23:01;;;;;;;10.43;9.32;;;;;;;3.55;63.70;102449.13;5036540;28;20148;-24
2022/04/17 07:25:26;;;;;;;10.93;8.63;;;;;;;3.69;64.00;102448.09;5041317;28;20020;-22
2022/04/17 07:27:53;;;;;;;9.20;8.18;;;;;;;3.84;63.80;102447.03;5036041;28;20029;-23
2022/04/17 07:30:23;;;;;;;9.98;8.48;;;;;;;4.00;66.05;102452.97;5034994;28;20104;-25
2022/04/17 07:32:53;;;;;;;9.40;7.80;;;;;;;4.12;63.92;102448.31;5047669;28;20033;-24
2022/04/17 07:35:20;;;;;;;9.88;7.90;;;;;;;4.28;65.21;102449.03;5034487;28;20123;-23
2022/04/17 07:37:49;;;;;;;8.80;7.90;;;;;;;4.42;64.87;102441.81;5037036;28;20029;-24
2022/04/17 07:40:19;;;;;;;8.30;7.50;;;;;;;4.55;64.47;102443.25;5032878;28;20040;-24
2022/04/17 07:42:44;;;;;;;9.63;7.90;;;;;;;4.70;63.90;102448.28;5031889;28;20029;-24
2022/04/17 07:45:11;;;;;;;7.68;6.90;;;;;;;4.82;63.81;102454.03;5028192;28;20032;-24
2022/04/17 07:47:36;;;;;;;10.40;7.43;;;;;;;4.96;64.06;102446.78;5026784;28;20454;-24
2022/04/17 07:50:03;;;;;;;7.15;6.25;;;;;;;5.09;63.50;102442.06;5039386;28;20025;-24
2022/04/17 07:52:28;;;;;;;9.15;6.90;;;;;;;5.22;63.21;102447.00;5031554;28;20663;-24
2022/04/17 07:54:54;;;;;;;8.23;6.32;;;;;;;5.35;63.48;102442.25;5030600;28;20032;-24
2022/04/17 07:57:19;;;;;;;7.38;6.15;;;;;;;5.48;63.23;102431.47;5028632;28;20037;-24
2022/04/17 07:59:45;;;;;;;7.88;6.32;;;;;;;5.63;64.24;102441.66;5028794;28;20025;-24
2022/04/17 08:02:22;;;;;;;8.13;6.32;;;;;;;5.75;63.75;102443.88;5040475;28;20536;-24
2022/04/17 08:04:51;;;;;;;6.88;5.72;;;;;;;5.88;63.83;102440.03;5032280;28;20641;-24
2022/04/17 08:07:17;;;;;;;7.88;5.90;;;;;;;6.01;64.27;102440.50;5039585;28;20063;-24
2022/04/17 08:09:42;;;;;;;6.10;5.22;;;;;;;6.14;63.95;102432.28;5038162;28;20104;-24
2022/04/17 08:12:08;;;;;;;5.93;5.38;;;;;;;6.25;63.19;102437.94;5038320;28;20120;-24
2022/04/17 08:14:33;;;;;;;7.15;5.47;;;;;;;6.39;63.33;102440.16;5042654;28;20020;-24
2022/04/17 08:16:58;;;;;;;5.22;4.72;;;;;;;6.51;62.62;102430.13;5044805;28;20028;-24
2022/04/17 08:19:24;;;;;;;7.45;5.32;;;;;;;6.62;63.06;102413.88;5039666;28;21091;-24
2022/04/17 08:21:51;;;;;;;6.20;5.10;;;;;;;6.76;63.15;102417.88;5039929;28;20029;-24
2022/04/17 08:24:16;;;;;;;6.03;5.40;;;;;;;6.89;64.09;102407.81;5041508;28;20051;-24
2022/04/17 08:26:42;;;;;;;5.43;4.57;;;;;;;7.02;62.85;102414.38;5036208;28;20399;-24
2022/04/17 08:29:09;;;;;;;5.88;4.65;;;;;;;7.15;62.21;102413.06;5041991;28;20028;-24
2022/04/17 08:31:34;;;;;;;6.43;5.05;;;;;;;7.25;61.68;102396.78;5039849;28;20036;-24
2022/04/17 08:34:00;;;;;;;6.00;4.75;;;;;;;7.38;61.28;102397.16;5029769;28;20021;-24
2022/04/17 08:36:26;;;;;;;5.00;4.47;;;;;;;7.51;62.02;102391.47;5030443;28;20063;-24
2022/04/17 08:38:52;;;;;;;5.28;4.35;;;;;;;7.65;62.24;102383.13;5029395;28;20104;-24
2022/04/17 08:41:20;;;;;;;4.95;4.45;;;;;;;7.78;61.32;102384.38;5036920;28;20036;-24
2022/04/17 08:43:46;;;;;;;6.45;4.82;;;;;;;7.94;62.45;102377.84;5036105;28;20021;-24
2022/04/17 08:46:12;;;;;;;4.68;4.18;;;;;;;8.09;63.15;102380.94;5031972;28;20090;-24
2022/04/17 08:48:38;;;;;;;5.13;4.45;;;;;;;8.22;61.49;102381.28;5033949;28;20087;-24
2022/04/17 08:51:05;;;;;;;5.03;4.03;;;;;;;8.37;62.38;102377.28;5030941;28;20025;-25
2022/04/17 08:53:33;;;;;;;6.30;3.97;;;;;;;8.56;62.13;102371.72;5036108;28;20022;-24
2022/04/17 08:55:58;;;;;;;4.00;3.58;;;;;;;8.75;63.86;102372.19;5045134;28;20032;-24
2022/04/17 08:58:24;;;;;;;5.65;3.80;;;;;;;8.92;64.78;102377.00;5032060;28;20044;-24
2022/04/17 09:00:50;;;;;;;4.68;3.70;;;;;;;9.07;61.87;102374.75;5034737;28;20022;-24
2022/04/17 09:03:15;;;;;;;4.22;3.83;;;;;;;9.25;63.31;102378.69;5040023;28;20037;-24
2022/04/17 09:05:41;;;;;;;4.13;3.72;;;;;;;9.39;61.05;102380.75;5035771;28;20025;-24
2022/04/17 09:08:21;;;;;;;3.65;3.35;;;;;;;9.59;61.38;102375.94;5040516;28;20114;-24
2022/04/17 09:10:59;;;;;;;3.55;3.25;;;;;;;9.76;60.88;102376.31;5028219;28;20377;-22
2022/04/17 09:13:28;;;;;;;4.65;3.38;;;;;;;9.93;60.17;102379.31;5027686;28;20029;-24
2022/04/17 09:15:54;;;;;;;4.88;3.00;;;;;;;10.08;59.83;102367.31;5024005;28;20052;-24
2022/04/17 09:18:19;;;;;;;4.10;3.17;;;;;;;10.23;59.86;102378.16;5026536;28;20076;-24
2022/04/17 09:20:49;;;;;;;5.07;3.53;;;;;;;10.42;60.01;102367.97;5033349;28;20024;-24
2022/04/17 09:23:15;;;;;;;3.13;2.70;;;;;;;10.58;59.90;102369.19;5043958;28;20086;-24
2022/04/17 09:25:45;;;;;;;4.88;3.15;;;;;;;10.73;59.43;102367.66;5034642;28;20025;-24
2022/04/17 09:28:11;;;;;;;3.97;3.47;;;;;;;10.89;58.94;102369.72;5043924;28;20033;-24
2022/04/17 09:30:42;;;;;;;3.63;3.10;;;;;;;11.05;59.89;102362.03;5029215;28;20120;-24
2022/04/17 09:33:09;;;;;;;3.40;2.92;;;;;;;11.16;57.92;102355.19;5038477;28;20079;-24
2022/04/17 09:35:35;;;;;;;3.10;2.80;;;;;;;11.29;57.58;102347.44;5039614;28;20391;-24
2022/04/17 09:38:03;;;;;;;3.13;2.83;;;;;;;11.45;58.25;102345.00;5039057;28;20043;-24
2022/04/17 09:40:31;;;;;;;3.65;2.80;;;;;;;11.54;56.16;102348.66;5036869;28;20030;-24
2022/04/17 09:43:13;;;;;;;4.32;2.42;;;;;;;11.73;57.05;102348.00;5030642;28;20021;-24
2022/04/17 09:45:58;;;;;;;3.67;3.20;;;;;;;11.82;55.57;102337.56;5027751;28;20029;-24
2022/04/17 09:48:24;;;;;;;4.20;2.80;;;;;;;11.98;56.30;102343.03;5026316;28;20026;-24
2022/04/17 09:50:49;;;;;;;3.40;2.85;;;;;;;12.13;57.30;102324.75;5027120;28;20375;-24
2022/04/17 09:53:30;;;;;;;4.88;2.85;;;;;;;12.26;56.57;102331.06;5025622;28;20480;-24
2022/04/17 09:56:10;;;;;;;3.38;2.53;;;;;;;12.37;55.99;102320.56;5029190;28;20106;-24
2022/04/17 09:58:43;;;;;;;3.17;2.53;;;;;;;12.47;54.61;102320.66;5029087;28;20040;-25
2022/04/17 10:01:08;;;;;;;3.28;2.40;;;;;;;12.55;54.33;102319.88;5033382;28;20033;-25
2022/04/17 10:03:39;;;;;;;3.47;2.85;;;;;;;12.65;54.19;102309.34;5042624;28;20028;-25
2022/04/17 10:06:06;;;;;;;3.75;2.85;;;;;;;12.73;53.54;102306.78;5036890;28;20035;-25
2022/04/17 10:08:32;;;;;;;3.33;3.03;;;;;;;12.80;52.90;102309.47;5036733;28;20040;-25
2022/04/17 10:10:58;;;;;;;4.35;2.65;;;;;;;12.91;53.06;102304.25;5033400;28;20025;-25
2022/04/17 10:13:24;;;;;;;3.10;2.90;;;;;;;13.00;52.68;102302.56;5037331;28;20036;-25
2022/04/17 10:15:51;;;;;;;3.97;2.83;;;;;;;13.09;53.03;102305.28;5040795;28;20025;-25
2022/04/17 10:18:18;;;;;;;4.57;3.10;;;;;;;13.14;52.34;102298.22;5038128;28;20063;-25
2022/04/17 10:20:45;;;;;;;5.40;3.25;;;;;;;13.21;51.84;102300.03;5036713;28;20062;-25
2022/04/17 10:23:11;;;;;;;3.30;2.80;;;;;;;13.30;51.73;102299.22;5026754;28;20030;-25
2022/04/17 10:25:39;;;;;;;3.08;2.75;;;;;;;13.38;51.79;102301.03;5027100;28;20029;-25
2022/04/17 10:28:06;;;;;;;4.05;2.97;;;;;;;13.45;51.88;102292.22;5028933;28;20029;-25
2022/04/17 10:31:07;;;;;;;6.47;3.88;;;;;;;13.56;52.27;102294.94;5026085;28;20029;-25
2022/04/17 10:34:01;;;;;;;3.08;2.78;;;;;;;13.63;51.89;102294.09;5041306;28;20036;-25
2022/04/17 10:36:52;;;;;;;4.78;3.50;;;;;;;13.71;51.66;102288.84;5037990;28;20061;-24
2022/04/17 10:39:33;;;;;;;2.92;2.63;;;;;;;13.80;52.00;102282.66;5032156;28;20386;-24
2022/04/17 10:41:59;;;;;;;3.88;3.03;;;;;;;13.90;52.72;102267.69;5031443;28;20037;-24
2022/04/17 10:44:29;;;;;;;3.10;2.63;;;;;;;13.95;53.81;102269.47;5037188;28;20083;-24
2022/04/17 10:46:56;;;;;;;2.80;2.60;;;;;;;14.01;52.38;102265.94;5038928;28;20400;-24
2022/04/17 10:49:26;;;;;;;3.45;2.47;;;;;;;14.09;52.31;102266.84;5042272;28;20521;-24
2022/04/17 10:51:57;;;;;;;3.63;2.88;;;;;;;14.18;52.81;102258.00;5033483;28;20113;-24
2022/04/17 10:54:23;;;;;;;3.50;2.67;;;;;;;14.27;52.92;102256.25;5036405;28;20052;-24
2022/04/17 10:56:54;;;;;;;2.58;2.30;;;;;;;14.35;52.97;102254.47;5028343;28;20080;-25
2022/04/17 10:59:45;;;;;;;3.65;2.72;;;;;;;14.46;53.10;102254.47;5026870;28;20034;-25
2022/04/17 11:02:16;;;;;;;3.17;2.88;;;;;;;14.53;53.42;102250.03;5023700;28;20036;-23
2022/04/17 11:04:55;;;;;;;2.67;2.40;;;;;;;14.58;52.34;102245.63;5026294;28;20035;-23
2022/04/17 11:07:29;;;;;;;4.40;2.72;;;;;;;14.63;52.46;102249.16;5023265;28;20032;-23
2022/04/17 11:10:18;;;;;;;2.58;2.38;;;;;;;14.70;51.41;102242.06;5026280;28;20048;-23
2022/04/17 11:12:52;;;;;;;3.22;2.67;;;;;;;14.78;51.76;102242.97;5033585;28;20040;-23
2022/04/17 11:15:17;;;;;;;3.22;2.40;;;;;;;14.84;51.70;102236.78;5033534;28;20446;-23
2022/04/17 11:17:44;;;;;;;3.17;2.88;;;;;;;14.91;51.74;102232.31;5038132;28;20068;-23
2022/04/17 11:20:10;;;;;;;2.72;2.50;;;;;;;14.98;51.59;102234.94;5034205;28;20091;-23
2022/04/17 11:22:36;;;;;;;2.50;2.30;;;;;;;15.07;52.13;102233.19;5026914;28;20040;-23
2022/04/17 11:25:12;;;;;;;3.40;2.25;;;;;;;15.17;51.85;102228.72;5027179;28;20033;-23
2022/04/17 11:27:45;;;;;;;4.10;2.80;;;;;;;15.25;52.17;102222.47;5026672;28;20030;-23
2022/04/17 11:30:13;;;;;;;4.35;2.30;;;;;;;15.30;51.54;102224.25;5024915;28;20021;-23
2022/04/17 11:32:38;;;;;;;3.33;3.00;;;;;;;15.39;51.04;102219.75;5026180;28;20711;-23
2022/04/17 11:35:05;;;;;;;3.03;2.60;;;;;;;15.46;51.29;102212.63;5025581;28;20040;-23
2022/04/17 11:37:31;;;;;;;2.92;2.58;;;;;;;15.53;51.35;102213.47;5022883;28;20034;-23
2022/04/17 11:39:58;;;;;;;2.80;2.58;;;;;;;15.59;51.09;102209.91;5023440;28;20079;-23